Portada
METAR-TAF:

METAR-TAF

Aeropuertos :

Santa Cruz de la Sierra, Bolivia

Aeropuerto El Trompillo

latitud: 17-48S, longitud: 063-11W, altitud: 418 m

Observación

El informe se hizo hace 1 hora y 28 minutos, a las 23:00 UTC
Viento 5 kt del sur-sureste
Temperatura 23°C
Humedad 69%
Presión 1015 hPa
Visibilidad 10 km o más
Nubes dispersas a una altura de 8000 ft

METAR: SLET 302300Z 15005KT 9999 SCT080 23/17 Q1015

Hora: 20:28 (00:28 UTC)

Pronóstico

El informe se hizo hace 2 horas y 28 minutos, a las 22:00 UTC
Pronóstico válido del 01 a las 00 UTC al 01 a las 24 UTC
Viento 5 kt del sureste
Visibilidad 10 km o más
Evolucionando progresivamente
del 01 a las 15 UTC al 01 a las 18 UTC
Viento 2 kt con dirección variable
Escasas nubes a una altura de 2000 ft

TAF: SLET 302200Z 0100/0124 13005KT 9999 NSC TX30/0119Z TN18/0111Z BECMG 0115/0118 VRB02KT FEW020

Observaciones y pronósticos meteorológicos de más de 4000 aeropuertos (mensajes METAR y TAF).

Los puntos amarillos y rojos representan las estaciones disponibles.

Ponga el ratón en el punto deseado para ver el nombre de la estación.

Haga clic para ver las observaciones y los pronósticos meteorológicos.

Para cambiar el mapa : haga clic en los botones verdes con una cruz de color negro para hacer un zoom, en el botón verde con un guión para alejar o en las flechas verdes para mapas adyacentes.


METAR-TAF: